createdAt,value
2022-10-12T00:00:35.978Z,9.05
2022-10-12T00:01:35.996Z,9.14
2022-10-12T00:02:35.987Z,9.10
2022-10-12T00:03:35.951Z,9.15
2022-10-12T00:04:35.950Z,9.15
2022-10-12T00:05:35.958Z,9.18
2022-10-12T00:06:35.949Z,9.13
2022-10-12T00:07:36.341Z,9.17
2022-10-12T00:08:35.965Z,9.15
2022-10-12T00:09:35.936Z,9.10
2022-10-12T00:10:35.997Z,9.10
2022-10-12T00:11:35.954Z,9.11
2022-10-12T00:12:35.957Z,9.20
2022-10-12T00:13:35.931Z,9.10
2022-10-12T00:14:35.935Z,9.13
2022-10-12T00:15:35.930Z,8.98
2022-10-12T00:16:35.928Z,9.01
2022-10-12T00:17:36.211Z,9.10
2022-10-12T00:18:35.930Z,9.01
2022-10-12T00:19:35.937Z,8.99
2022-10-12T00:20:35.935Z,8.96
2022-10-12T00:21:35.933Z,8.95
2022-10-12T00:22:35.927Z,8.83
2022-10-12T00:23:35.936Z,8.91
2022-10-12T00:24:39.397Z,8.91
2022-10-12T00:25:35.925Z,8.81
2022-10-12T00:26:35.913Z,8.84
2022-10-12T00:27:36.226Z,8.77
2022-10-12T00:28:35.999Z,8.83
2022-10-12T00:29:35.925Z,8.83
2022-10-12T00:30:35.914Z,8.86
2022-10-12T00:31:35.914Z,8.87
2022-10-12T00:32:35.895Z,8.80
2022-10-12T00:33:35.907Z,8.77
2022-10-12T00:34:35.936Z,8.76
2022-10-12T00:35:35.910Z,8.74
2022-10-12T00:36:36.053Z,8.76
2022-10-12T00:37:36.243Z,8.73
2022-10-12T00:38:35.884Z,8.80
2022-10-12T00:39:35.925Z,8.77
2022-10-12T00:40:35.897Z,8.70
2022-10-12T00:41:35.883Z,8.77
2022-10-12T00:42:35.897Z,8.77
2022-10-12T00:43:35.911Z,8.74
2022-10-12T00:44:35.888Z,8.63
2022-10-12T00:45:35.883Z,8.53
2022-10-12T00:46:35.883Z,8.62
2022-10-12T00:47:36.185Z,8.59
2022-10-12T00:48:35.904Z,8.61
2022-10-12T00:49:35.869Z,8.59
2022-10-12T00:50:35.867Z,8.59
2022-10-12T00:51:35.900Z,8.58
2022-10-12T00:52:35.867Z,8.56
2022-10-12T00:53:35.876Z,8.53
2022-10-12T00:54:35.896Z,8.47
2022-10-12T00:55:35.865Z,8.43
2022-10-12T00:56:35.857Z,8.29
2022-10-12T00:57:36.093Z,8.20
2022-10-12T00:58:35.862Z,8.12
2022-10-12T00:59:35.876Z,7.97
2022-10-12T01:00:35.922Z,7.97
2022-10-12T01:01:35.850Z,7.82
2022-10-12T01:02:35.883Z,7.77
2022-10-12T01:03:35.854Z,7.85
2022-10-12T01:04:35.854Z,7.83
2022-10-12T01:05:35.851Z,7.82
2022-10-12T01:06:35.845Z,7.82
2022-10-12T01:07:36.125Z,7.92
2022-10-12T01:08:35.879Z,7.89
2022-10-12T01:09:35.850Z,7.93
2022-10-12T01:10:35.835Z,7.97
2022-10-12T01:11:35.823Z,7.97
2022-10-12T01:12:35.832Z,8.01
2022-10-12T01:13:35.836Z,7.92
2022-10-12T01:14:35.841Z,7.89
2022-10-12T01:15:35.818Z,7.85
2022-10-12T01:16:35.830Z,7.82
2022-10-12T01:17:36.131Z,7.69
2022-10-12T01:18:35.817Z,7.71
2022-10-12T01:19:35.829Z,7.79
2022-10-12T01:20:35.823Z,7.61
2022-10-12T01:21:35.817Z,7.71
2022-10-12T01:22:35.815Z,7.63
2022-10-12T01:23:35.818Z,7.74
2022-10-12T01:24:35.839Z,7.68
2022-10-12T01:25:35.805Z,7.71
2022-10-12T01:26:35.789Z,7.77
2022-10-12T01:27:36.194Z,7.72
2022-10-12T01:28:35.848Z,7.75
2022-10-12T01:29:35.825Z,7.82
2022-10-12T01:30:35.789Z,7.79
2022-10-12T01:31:35.799Z,7.77
2022-10-12T01:32:35.791Z,7.74
2022-10-12T01:33:35.812Z,7.77
2022-10-12T01:34:35.792Z,7.82
2022-10-12T01:35:35.779Z,7.80
2022-10-12T01:36:35.773Z,7.83
2022-10-12T01:37:36.125Z,7.82
2022-10-12T01:38:35.772Z,7.92
2022-10-12T01:39:35.795Z,8.00
2022-10-12T01:40:35.767Z,7.93
2022-10-12T01:41:35.763Z,7.95
2022-10-12T01:42:35.772Z,7.97
2022-10-12T01:43:35.778Z,7.93
2022-10-12T01:44:39.256Z,7.95
2022-10-12T01:45:35.766Z,8.04
2022-10-12T01:46:35.764Z,7.95
2022-10-12T01:47:36.067Z,8.01
2022-10-12T01:48:35.835Z,8.02
2022-10-12T01:49:35.756Z,8.00
2022-10-12T01:50:35.755Z,8.05
2022-10-12T01:51:35.769Z,8.01
2022-10-12T01:52:35.743Z,7.97
2022-10-12T01:53:36.726Z,7.95
2022-10-12T01:54:35.761Z,7.97
2022-10-12T01:55:35.731Z,7.93
2022-10-12T01:56:35.744Z,7.95
2022-10-12T01:57:36.052Z,7.93
2022-10-12T01:58:35.740Z,7.90
2022-10-12T01:59:35.743Z,7.90
2022-10-12T02:00:35.738Z,7.85
2022-10-12T02:01:35.788Z,7.80
2022-10-12T02:02:35.736Z,7.82
2022-10-12T02:03:35.719Z,7.85
2022-10-12T02:04:35.726Z,7.80
2022-10-12T02:05:35.737Z,7.90
2022-10-12T02:06:35.738Z,7.86
2022-10-12T02:07:35.930Z,7.87
2022-10-12T02:08:35.718Z,7.92
2022-10-12T02:09:35.708Z,7.90
2022-10-12T02:10:35.741Z,7.89
2022-10-12T02:11:35.721Z,7.83
2022-10-12T02:12:35.711Z,7.80
2022-10-12T02:13:35.711Z,7.80
2022-10-12T02:14:35.703Z,7.83
2022-10-12T02:15:35.699Z,7.82
2022-10-12T02:16:35.704Z,7.86
2022-10-12T02:17:35.893Z,7.85
2022-10-12T02:18:35.714Z,7.86
2022-10-12T02:19:35.711Z,7.82
2022-10-12T02:20:35.680Z,7.80
2022-10-12T02:21:35.692Z,7.80
2022-10-12T02:22:35.696Z,7.89
2022-10-12T02:23:35.683Z,7.92
2022-10-12T02:24:35.673Z,7.92
2022-10-12T02:25:35.699Z,7.92
2022-10-12T02:26:35.673Z,7.97
2022-10-12T02:27:35.890Z,7.95
2022-10-12T02:28:35.779Z,8.00
2022-10-12T02:29:35.680Z,7.90
2022-10-12T02:30:35.674Z,7.97
2022-10-12T02:31:35.704Z,7.89
2022-10-12T02:32:35.656Z,7.89
2022-10-12T02:33:35.665Z,7.82
2022-10-12T02:34:35.666Z,7.92
2022-10-12T02:35:36.251Z,7.82
2022-10-12T02:36:35.671Z,7.85
2022-10-12T02:37:35.949Z,7.71
2022-10-12T02:38:35.657Z,7.82
2022-10-12T02:39:35.693Z,7.77
2022-10-12T02:40:35.659Z,7.68
2022-10-12T02:41:35.657Z,7.74
2022-10-12T02:42:58.473Z,7.71
2022-10-12T02:43:35.639Z,7.63
2022-10-12T02:44:35.634Z,7.63
2022-10-12T02:45:35.628Z,7.60
2022-10-12T02:46:35.646Z,7.61
2022-10-12T02:47:35.906Z,7.55
2022-10-12T02:48:35.632Z,7.48
2022-10-12T02:49:35.632Z,7.50
2022-10-12T02:50:35.620Z,7.46
2022-10-12T02:51:35.614Z,7.45
2022-10-12T02:52:35.622Z,7.43
2022-10-12T02:53:35.618Z,7.46
2022-10-12T02:54:35.607Z,7.43
2022-10-12T02:55:35.606Z,7.43
2022-10-12T02:56:35.620Z,7.34
2022-10-12T02:57:35.872Z,7.35
2022-10-12T02:58:35.598Z,7.34
2022-10-12T02:59:35.613Z,7.30
2022-10-12T03:00:35.609Z,7.40
2022-10-12T03:01:35.728Z,7.30
2022-10-12T03:02:35.625Z,7.42
2022-10-12T03:03:35.600Z,7.31
2022-10-12T03:04:35.599Z,7.40
2022-10-12T03:05:35.602Z,7.37
2022-10-12T03:06:35.590Z,7.32
2022-10-12T03:07:35.902Z,7.30
2022-10-12T03:08:35.614Z,7.27
2022-10-12T03:09:35.573Z,7.23
2022-10-12T03:10:35.584Z,7.27
2022-10-12T03:11:35.585Z,7.24
2022-10-12T03:12:35.594Z,7.24
2022-10-12T03:13:35.580Z,7.21
2022-10-12T03:14:35.576Z,7.31
2022-10-12T03:15:35.578Z,7.39
2022-10-12T03:16:35.577Z,7.35
2022-10-12T03:17:35.778Z,7.30
2022-10-12T03:18:35.566Z,7.42
2022-10-12T03:19:35.568Z,7.45
2022-10-12T03:20:35.563Z,7.46
2022-10-12T03:21:35.559Z,7.45
2022-10-12T03:22:35.560Z,7.46
2022-10-12T03:23:35.540Z,7.52
2022-10-12T03:24:35.576Z,7.45
2022-10-12T03:25:35.561Z,7.40
2022-10-12T03:26:35.563Z,7.40
2022-10-12T03:27:35.815Z,7.39
2022-10-12T03:28:35.628Z,7.32
2022-10-12T03:29:35.535Z,7.30
2022-10-12T03:30:35.560Z,7.27
2022-10-12T03:31:35.533Z,7.35
2022-10-12T03:32:35.536Z,7.35
2022-10-12T03:33:35.536Z,7.40
2022-10-12T03:34:35.525Z,7.34
2022-10-12T03:35:35.591Z,7.42
2022-10-12T03:36:35.515Z,7.45
2022-10-12T03:37:35.740Z,7.32
2022-10-12T03:38:35.508Z,7.35
2022-10-12T03:39:35.519Z,7.30
2022-10-12T03:40:35.506Z,7.27
2022-10-12T03:41:35.531Z,7.12
2022-10-12T03:42:35.521Z,7.20
2022-10-12T03:43:35.515Z,7.21
2022-10-12T03:44:35.498Z,7.17
2022-10-12T03:45:35.521Z,7.09
2022-10-12T03:46:35.500Z,6.98
2022-10-12T03:47:35.761Z,7.07
2022-10-12T03:48:35.489Z,6.97
2022-10-12T03:49:35.500Z,6.97
2022-10-12T03:50:35.492Z,6.99
2022-10-12T03:51:35.481Z,6.97
2022-10-12T03:52:35.509Z,6.98
2022-10-12T03:53:35.489Z,6.95
2022-10-12T03:54:35.473Z,6.97
2022-10-12T03:55:35.478Z,6.92
2022-10-12T03:56:35.467Z,6.87
2022-10-12T03:57:36.066Z,6.84
2022-10-12T03:58:35.479Z,6.97
2022-10-12T03:59:35.474Z,6.95
2022-10-12T04:00:35.462Z,6.92
2022-10-12T04:01:35.540Z,6.98
2022-10-12T04:02:35.467Z,6.94
2022-10-12T04:03:35.472Z,6.91
2022-10-12T04:04:35.448Z,6.99
2022-10-12T04:05:35.458Z,6.97
2022-10-12T04:06:35.472Z,6.95
2022-10-12T04:07:35.723Z,6.94
2022-10-12T04:08:35.437Z,6.97
2022-10-12T04:09:35.450Z,6.94
2022-10-12T04:10:35.437Z,6.94
2022-10-12T04:11:35.433Z,6.97
2022-10-12T04:12:35.440Z,6.95
2022-10-12T04:13:35.431Z,6.97
2022-10-12T04:14:35.434Z,7.06
2022-10-12T04:15:35.426Z,7.03
2022-10-12T04:16:35.428Z,7.06
2022-10-12T04:17:35.539Z,7.10
2022-10-12T04:18:35.416Z,7.09
2022-10-12T04:19:35.423Z,6.97
2022-10-12T04:20:35.423Z,7.06
2022-10-12T04:21:35.437Z,6.99
2022-10-12T04:22:35.406Z,7.02
2022-10-12T04:23:35.400Z,6.99
2022-10-12T04:24:35.415Z,7.05
2022-10-12T04:25:35.419Z,7.03
2022-10-12T04:26:35.404Z,7.05
2022-10-12T04:27:35.603Z,7.03
2022-10-12T04:28:35.475Z,7.13
2022-10-12T04:29:35.389Z,7.07
2022-10-12T04:30:35.387Z,6.97
2022-10-12T04:31:35.381Z,7.09
2022-10-12T04:32:35.398Z,7.09
2022-10-12T04:33:35.392Z,7.17
2022-10-12T04:34:35.379Z,7.10
2022-10-12T04:35:35.372Z,7.03
2022-10-12T04:36:35.392Z,6.97
2022-10-12T04:37:35.548Z,7.12
2022-10-12T04:38:35.379Z,7.12
2022-10-12T04:39:35.391Z,7.10
2022-10-12T04:40:35.375Z,7.10
2022-10-12T04:41:35.367Z,7.12
2022-10-12T04:42:35.368Z,7.03
2022-10-12T04:43:35.372Z,7.03
2022-10-12T04:44:35.363Z,7.03
2022-10-12T04:45:35.354Z,6.99
2022-10-12T04:46:35.349Z,6.97
2022-10-12T04:47:35.590Z,7.03
2022-10-12T04:48:35.363Z,6.99
2022-10-12T04:49:35.348Z,6.95
2022-10-12T04:50:35.341Z,6.97
2022-10-12T04:51:35.347Z,6.97
2022-10-12T04:52:35.338Z,6.97
2022-10-12T04:53:35.342Z,6.99
2022-10-12T04:54:35.369Z,6.98
2022-10-12T04:55:35.392Z,7.05
2022-10-12T04:56:35.334Z,6.95
2022-10-12T04:57:35.531Z,6.99
2022-10-12T04:58:35.338Z,6.97
2022-10-12T04:59:35.353Z,6.98
2022-10-12T05:00:35.319Z,6.99
2022-10-12T05:01:35.416Z,6.88
2022-10-12T05:02:35.317Z,6.91
2022-10-12T05:03:40.962Z,6.77
2022-10-12T05:05:35.337Z,6.69
2022-10-12T05:06:35.314Z,6.73
2022-10-12T05:07:35.533Z,6.66
2022-10-12T05:08:42.983Z,6.69
2022-10-12T05:09:35.304Z,6.64
2022-10-12T05:10:35.314Z,6.70
2022-10-12T05:11:35.285Z,6.70
2022-10-12T05:12:35.567Z,6.67
2022-10-12T05:13:35.303Z,6.71
2022-10-12T05:14:36.277Z,6.76
2022-10-12T05:15:35.284Z,6.73
2022-10-12T05:16:35.279Z,6.77
2022-10-12T05:17:35.494Z,6.81
2022-10-12T05:18:35.266Z,6.76
2022-10-12T05:19:35.269Z,6.81
2022-10-12T05:20:35.275Z,6.84
2022-10-12T05:21:35.319Z,6.70
2022-10-12T05:22:35.268Z,6.71
2022-10-12T05:23:35.279Z,6.66
2022-10-12T05:24:35.255Z,6.67
2022-10-12T05:25:35.283Z,6.67
2022-10-12T05:26:35.260Z,6.67
2022-10-12T05:27:35.469Z,6.71
2022-10-12T05:28:40.599Z,6.67
2022-10-12T05:29:35.258Z,6.66
2022-10-12T05:30:35.246Z,6.62
2022-10-12T05:31:35.238Z,6.58
2022-10-12T05:32:35.414Z,6.56
2022-10-12T05:33:35.248Z,6.59
2022-10-12T05:34:35.253Z,6.71
2022-10-12T05:35:35.233Z,6.62
2022-10-12T05:36:35.232Z,6.73
2022-10-12T05:37:35.409Z,6.77
2022-10-12T05:38:35.238Z,6.74
2022-10-12T05:39:35.233Z,6.79
2022-10-12T05:40:35.224Z,6.76
2022-10-12T05:41:35.234Z,6.81
2022-10-12T05:42:35.366Z,6.92
2022-10-12T05:43:35.231Z,6.87
2022-10-12T05:44:35.214Z,6.91
2022-10-12T05:45:35.200Z,6.97
2022-10-12T05:46:35.210Z,6.99
2022-10-12T05:47:35.523Z,6.91
2022-10-12T05:48:35.212Z,6.94
2022-10-12T05:49:35.205Z,6.98
2022-10-12T05:50:35.199Z,6.98
2022-10-12T05:51:35.199Z,6.98
2022-10-12T05:52:35.462Z,6.94
2022-10-12T05:53:35.192Z,6.92
2022-10-12T05:54:35.188Z,6.98
2022-10-12T05:55:35.184Z,6.95
2022-10-12T05:56:35.172Z,6.98
2022-10-12T05:57:35.186Z,7.03
2022-10-12T05:58:35.167Z,7.03
2022-10-12T05:59:35.195Z,6.99
2022-10-12T06:00:35.169Z,7.07
2022-10-12T06:01:35.264Z,7.02
2022-10-12T06:02:35.368Z,6.97
2022-10-12T06:03:35.415Z,6.98
2022-10-12T06:04:35.150Z,7.06
2022-10-12T06:05:35.176Z,7.15
2022-10-12T06:06:35.160Z,7.21
2022-10-12T06:07:35.157Z,7.37
2022-10-12T06:08:35.157Z,7.40
2022-10-12T06:09:35.209Z,7.52
2022-10-12T06:10:35.288Z,7.55
2022-10-12T06:11:36.474Z,7.77
2022-10-12T06:12:35.318Z,7.71
2022-10-12T06:13:35.157Z,7.93
2022-10-12T06:14:35.125Z,8.04
2022-10-12T06:15:35.133Z,8.07
2022-10-12T06:16:35.139Z,8.16
2022-10-12T06:17:35.145Z,8.11
2022-10-12T06:18:35.137Z,8.12
2022-10-12T06:19:35.134Z,8.16
2022-10-12T06:20:35.108Z,8.19
2022-10-12T06:21:35.164Z,8.11
2022-10-12T06:22:35.420Z,8.07
2022-10-12T06:23:35.126Z,8.08
2022-10-12T06:24:35.101Z,8.18
2022-10-12T06:25:35.119Z,8.11
2022-10-12T06:26:35.117Z,8.07
2022-10-12T06:27:35.110Z,8.02
2022-10-12T06:28:35.157Z,8.04
2022-10-12T06:29:35.158Z,8.01
2022-10-12T06:30:35.118Z,8.00
2022-10-12T06:31:35.104Z,8.00
2022-10-12T06:32:35.386Z,7.97
2022-10-12T06:33:35.091Z,7.93
2022-10-12T06:34:35.098Z,7.90
2022-10-12T06:35:35.109Z,7.95
2022-10-12T06:36:35.077Z,7.92
2022-10-12T06:37:49.566Z,7.93
2022-10-12T06:38:35.078Z,8.01
2022-10-12T06:39:35.081Z,8.11
2022-10-12T06:40:35.087Z,8.15
2022-10-12T06:41:35.077Z,8.15
2022-10-12T06:42:35.308Z,8.23
2022-10-12T06:43:35.069Z,8.33
2022-10-12T06:44:35.060Z,8.40
2022-10-12T06:45:35.071Z,8.44
2022-10-12T06:46:35.079Z,8.52
2022-10-12T06:47:35.053Z,8.61
2022-10-12T06:48:35.051Z,8.76
2022-10-12T06:49:35.049Z,8.79
2022-10-12T06:50:35.054Z,8.94
2022-10-12T06:51:35.116Z,9.11
2022-10-12T06:52:35.138Z,9.18
2022-10-12T06:53:35.066Z,9.40
2022-10-12T06:54:35.045Z,9.61
2022-10-12T06:55:35.044Z,9.81
2022-10-12T06:56:35.044Z,10.02
2022-10-12T06:57:35.042Z,10.25
2022-10-12T06:58:35.040Z,10.41
2022-10-12T06:59:35.040Z,10.60
2022-10-12T07:00:35.037Z,10.76
2022-10-12T07:01:35.123Z,11.07
2022-10-12T07:02:35.134Z,11.15
2022-10-12T07:03:35.032Z,11.57
2022-10-12T07:04:35.019Z,11.70
2022-10-12T07:05:35.038Z,12.10
2022-10-12T07:06:35.048Z,12.17
2022-10-12T07:07:35.015Z,12.29
2022-10-12T07:08:35.022Z,12.65
2022-10-12T07:09:35.021Z,12.79
2022-10-12T07:10:35.009Z,13.04
2022-10-12T07:11:35.039Z,13.28
2022-10-12T07:12:35.211Z,13.44
2022-10-12T07:13:35.034Z,13.69
2022-10-12T07:14:35.013Z,13.71
2022-10-12T07:15:34.999Z,13.73
2022-10-12T07:16:35.009Z,13.97
2022-10-12T07:17:35.128Z,14.04
2022-10-12T07:18:35.027Z,14.24
2022-10-12T07:19:35.008Z,14.28
2022-10-12T07:20:35.008Z,14.50
2022-10-12T07:21:34.996Z,14.65
2022-10-12T07:22:35.001Z,14.69
2022-10-12T07:23:35.008Z,14.91
2022-10-12T07:24:35.007Z,15.06
2022-10-12T07:25:35.002Z,15.07
2022-10-12T07:26:35.000Z,15.27
2022-10-12T07:27:35.085Z,15.41
2022-10-12T07:28:35.026Z,15.54
2022-10-12T07:29:35.043Z,15.76
2022-10-12T07:30:34.996Z,15.90
2022-10-12T07:31:34.987Z,16.04
2022-10-12T07:32:34.987Z,16.09
2022-10-12T07:33:34.990Z,16.30
2022-10-12T07:34:35.003Z,16.34
2022-10-12T07:35:35.100Z,16.49
2022-10-12T07:36:57.524Z,16.61
2022-10-12T07:37:34.993Z,16.73
2022-10-12T07:38:35.004Z,16.89
2022-10-12T07:39:34.990Z,16.85
2022-10-12T07:40:34.978Z,17.04
2022-10-12T07:41:34.996Z,17.07
2022-10-12T07:42:34.992Z,17.18
2022-10-12T07:43:34.990Z,17.26
2022-10-12T07:44:34.984Z,17.36
2022-10-12T07:45:34.982Z,17.48
2022-10-12T07:46:35.011Z,17.44
2022-10-12T07:47:35.007Z,17.52
2022-10-12T07:48:34.986Z,17.46
2022-10-12T07:49:34.991Z,17.36
2022-10-12T07:50:34.994Z,17.33
2022-10-12T07:51:34.982Z,17.26
2022-10-12T07:52:34.996Z,17.14
2022-10-12T07:53:35.001Z,17.03
2022-10-12T07:54:34.999Z,16.81
2022-10-12T07:55:35.006Z,16.89
2022-10-12T07:56:35.014Z,16.86
2022-10-12T07:57:35.011Z,16.91
2022-10-12T07:58:34.995Z,16.97
2022-10-12T07:59:35.030Z,17.01
2022-10-12T08:00:35.020Z,17.16
2022-10-12T08:01:35.054Z,17.25
2022-10-12T08:02:35.020Z,17.46
2022-10-12T08:03:34.996Z,17.55
2022-10-12T08:04:35.008Z,17.74
2022-10-12T08:05:35.008Z,17.68
2022-10-12T08:06:35.007Z,17.78
2022-10-12T08:07:35.020Z,17.90
2022-10-12T08:08:35.033Z,18.08
2022-10-12T08:09:34.998Z,18.25
2022-10-12T08:10:35.016Z,18.30
2022-10-12T08:11:35.017Z,18.35
2022-10-12T08:12:35.026Z,18.41
2022-10-12T08:13:35.021Z,18.52
2022-10-12T08:14:35.033Z,18.52
2022-10-12T08:15:35.031Z,18.51
2022-10-12T08:16:35.043Z,18.48
2022-10-12T08:17:35.016Z,18.26
2022-10-12T08:18:35.044Z,18.21
2022-10-12T08:19:35.507Z,18.03
2022-10-12T08:20:35.045Z,18.02
2022-10-12T08:21:35.051Z,17.71
2022-10-12T08:22:35.050Z,17.46
2022-10-12T08:23:35.040Z,17.31
2022-10-12T08:24:35.035Z,17.52
2022-10-12T08:25:35.042Z,17.49
2022-10-12T08:26:35.060Z,17.51
2022-10-12T08:27:35.172Z,17.54
2022-10-12T08:28:35.105Z,17.58
2022-10-12T08:29:35.075Z,17.63
2022-10-12T08:30:35.053Z,17.77
2022-10-12T08:31:35.096Z,17.72
2022-10-12T08:32:35.056Z,17.84
2022-10-12T08:33:35.060Z,17.90
2022-10-12T08:34:35.071Z,17.96
2022-10-12T08:35:35.071Z,18.03
2022-10-12T08:36:35.074Z,18.05
2022-10-12T08:37:35.081Z,18.23
2022-10-12T08:38:35.088Z,18.26
2022-10-12T08:39:35.073Z,18.37
2022-10-12T08:40:35.089Z,18.48
2022-10-12T08:41:35.088Z,18.51
2022-10-12T08:42:35.093Z,18.48
2022-10-12T08:43:35.104Z,18.76
2022-10-12T08:44:35.122Z,18.73
2022-10-12T08:45:35.113Z,18.99
2022-10-12T08:46:35.117Z,19.02
2022-10-12T08:47:35.099Z,19.11
2022-10-12T08:48:35.110Z,19.11
2022-10-12T08:49:35.136Z,19.21
2022-10-12T08:50:35.125Z,19.23
2022-10-12T08:51:35.123Z,19.41
2022-10-12T08:52:35.130Z,19.50
2022-10-12T08:53:35.138Z,19.66
2022-10-12T08:54:35.134Z,19.86
2022-10-12T08:55:35.153Z,19.92
2022-10-12T08:56:35.155Z,19.84
2022-10-12T08:57:35.141Z,19.86
2022-10-12T08:58:35.170Z,19.91
2022-10-12T08:59:35.165Z,20.02
2022-10-12T09:00:35.166Z,19.86
2022-10-12T09:01:35.202Z,19.83
2022-10-12T09:02:35.169Z,20.01
2022-10-12T09:03:35.181Z,20.13
2022-10-12T09:04:35.187Z,20.14
2022-10-12T09:05:35.192Z,20.24
2022-10-12T09:06:35.221Z,20.59
2022-10-12T09:07:35.237Z,20.72
2022-10-12T09:08:35.198Z,21.01
2022-10-12T09:09:37.046Z,21.10
2022-10-12T09:10:35.278Z,21.21
2022-10-12T09:11:35.218Z,21.25
2022-10-12T09:12:35.236Z,21.22
2022-10-12T09:13:35.238Z,20.88
2022-10-12T09:14:35.238Z,20.85
2022-10-12T09:15:35.255Z,20.80
2022-10-12T09:16:35.247Z,20.95
2022-10-12T09:17:35.254Z,20.97
2022-10-12T09:18:40.426Z,21.04
2022-10-12T09:19:35.275Z,20.99
2022-10-12T09:20:35.277Z,20.94
2022-10-12T09:21:35.303Z,20.94
2022-10-12T09:22:35.285Z,20.94
2022-10-12T09:23:35.299Z,20.94
2022-10-12T09:24:35.310Z,20.94
2022-10-12T09:25:35.317Z,20.72
2022-10-12T09:26:35.315Z,20.54
2022-10-12T09:27:35.309Z,20.48
2022-10-12T09:28:35.939Z,20.38
2022-10-12T09:29:35.337Z,20.02
2022-10-12T09:30:35.363Z,19.94
2022-10-12T09:31:35.350Z,19.76
2022-10-12T09:32:35.343Z,19.58
2022-10-12T09:33:35.361Z,19.43
2022-10-12T09:34:35.352Z,19.29
2022-10-12T09:35:35.368Z,19.37
2022-10-12T09:36:35.375Z,19.33
2022-10-12T09:37:35.369Z,19.22
2022-10-12T09:38:35.378Z,19.08
2022-10-12T09:39:35.385Z,19.14
2022-10-12T09:40:35.408Z,18.92
2022-10-12T09:41:35.405Z,18.70
2022-10-12T09:42:35.415Z,18.57
2022-10-12T09:43:35.408Z,18.54
2022-10-12T09:44:35.394Z,18.48
2022-10-12T09:45:35.427Z,18.37
2022-10-12T09:46:35.416Z,18.27
2022-10-12T09:47:35.438Z,18.32
2022-10-12T09:48:35.431Z,18.23
2022-10-12T09:49:35.433Z,18.18
2022-10-12T09:50:35.426Z,18.20
2022-10-12T09:51:35.475Z,18.25
2022-10-12T09:52:35.439Z,18.08
2022-10-12T09:53:35.453Z,18.05
2022-10-12T09:54:35.558Z,17.99
2022-10-12T09:55:35.510Z,17.96
2022-10-12T09:56:35.449Z,17.90
2022-10-12T09:57:35.480Z,17.90
2022-10-12T09:58:35.445Z,17.92
2022-10-12T09:59:35.451Z,17.72
2022-10-12T10:00:35.466Z,17.71
2022-10-12T10:01:35.505Z,17.59
2022-10-12T10:02:35.480Z,17.51
2022-10-12T10:03:43.919Z,17.49
2022-10-12T10:04:43.935Z,17.43
2022-10-12T10:05:43.089Z,17.44
2022-10-12T10:06:45.988Z,17.26
2022-10-12T10:07:44.519Z,17.31
2022-10-12T10:08:43.538Z,17.31
2022-10-12T10:09:35.489Z,17.58
2022-10-12T10:10:43.031Z,17.58
2022-10-12T10:11:43.598Z,17.70
2022-10-12T10:12:43.617Z,17.87
2022-10-12T10:13:43.643Z,17.95
2022-10-12T10:14:44.164Z,18.15
2022-10-12T10:15:43.689Z,18.33
2022-10-12T10:16:43.090Z,18.32
2022-10-12T10:17:45.719Z,18.41
2022-10-12T10:18:43.741Z,18.52
2022-10-12T10:19:43.777Z,18.70
2022-10-12T10:20:43.791Z,18.82
2022-10-12T10:21:43.810Z,19.08
2022-10-12T10:22:43.169Z,19.39
2022-10-12T10:23:43.853Z,19.48
2022-10-12T10:24:43.892Z,19.84
2022-10-12T10:25:43.958Z,19.99
2022-10-12T10:26:44.960Z,20.13
2022-10-12T10:27:44.060Z,20.36
2022-10-12T10:28:44.135Z,20.54
2022-10-12T10:29:43.129Z,20.58
2022-10-12T10:30:45.185Z,20.66
2022-10-12T10:31:44.974Z,20.62
2022-10-12T10:32:43.578Z,20.72
2022-10-12T10:33:43.104Z,20.62
2022-10-12T10:34:35.565Z,20.41
2022-10-12T10:35:35.539Z,20.47
2022-10-12T10:36:35.548Z,20.52
2022-10-12T10:37:35.581Z,20.43
2022-10-12T10:38:35.576Z,20.36
2022-10-12T10:39:35.564Z,20.33
2022-10-12T10:40:35.572Z,20.13
2022-10-12T10:41:35.618Z,19.87
2022-10-12T10:42:35.587Z,19.71
2022-10-12T10:43:35.567Z,19.41
2022-10-12T10:44:35.621Z,19.46
2022-10-12T10:45:35.614Z,19.43
2022-10-12T10:46:35.580Z,19.48
2022-10-12T10:47:35.579Z,19.48
2022-10-12T10:48:35.595Z,19.71
2022-10-12T10:49:35.595Z,19.86
2022-10-12T10:50:35.622Z,19.99
2022-10-12T10:51:35.604Z,20.16
2022-10-12T10:52:35.600Z,20.36
2022-10-12T10:53:35.631Z,20.52
2022-10-12T10:54:35.621Z,20.73
2022-10-12T10:55:35.609Z,20.87
2022-10-12T10:56:35.615Z,20.95
2022-10-12T10:57:35.629Z,21.06
2022-10-12T10:58:35.633Z,20.92
2022-10-12T10:59:35.649Z,21.01
2022-10-12T11:00:40.580Z,20.82
2022-10-12T11:01:35.757Z,20.87
2022-10-12T11:02:35.643Z,20.82
2022-10-12T11:03:35.656Z,20.97
2022-10-12T11:04:35.652Z,21.12
2022-10-12T11:05:35.672Z,21.28
2022-10-12T11:06:35.673Z,21.35
2022-10-12T11:07:35.678Z,21.59
2022-10-12T11:08:35.682Z,21.72
2022-10-12T11:09:43.226Z,21.56
2022-10-12T11:10:35.685Z,21.69
2022-10-12T11:11:35.694Z,21.74
2022-10-12T11:12:35.699Z,21.74
2022-10-12T11:13:35.694Z,21.91
2022-10-12T11:14:35.711Z,22.10
2022-10-12T11:15:35.723Z,22.25
2022-10-12T11:16:35.724Z,22.46
2022-10-12T11:17:35.739Z,22.77
2022-10-12T11:18:35.731Z,23.15
2022-10-12T11:19:35.735Z,23.43
2022-10-12T11:20:35.743Z,23.69
2022-10-12T11:21:35.736Z,23.48
2022-10-12T11:22:35.752Z,22.92
2022-10-12T11:23:35.751Z,23.05
2022-10-12T11:24:35.757Z,23.23
2022-10-12T11:25:35.810Z,23.46
2022-10-12T11:26:35.763Z,23.88
2022-10-12T11:27:35.785Z,24.27
2022-10-12T11:28:35.871Z,24.53
2022-10-12T11:29:35.779Z,24.65
2022-10-12T11:30:35.792Z,24.37
2022-10-12T11:31:35.820Z,24.35
2022-10-12T11:32:35.791Z,24.08
2022-10-12T11:33:35.816Z,23.98
2022-10-12T11:34:35.863Z,23.79
2022-10-12T11:35:35.825Z,23.47
2022-10-12T11:36:35.814Z,22.77
2022-10-12T11:37:35.844Z,22.49
2022-10-12T11:38:35.829Z,22.49
2022-10-12T11:39:35.841Z,21.83
2022-10-12T11:41:36.434Z,21.50
2022-10-12T11:42:38.873Z,20.91
2022-10-12T11:43:35.856Z,20.69
2022-10-12T11:44:35.879Z,20.52
2022-10-12T11:45:35.898Z,21.12
2022-10-12T11:46:35.868Z,21.58
2022-10-12T11:47:35.862Z,22.30
2022-10-12T11:48:35.866Z,22.22
2022-10-12T11:49:35.877Z,21.80
2022-10-12T11:50:35.883Z,21.80
2022-10-12T11:51:35.910Z,22.25
2022-10-12T11:52:35.873Z,22.73
2022-10-12T11:53:35.904Z,22.98
2022-10-12T11:54:35.890Z,23.27
2022-10-12T11:55:35.896Z,23.57
2022-10-12T11:56:35.901Z,23.66
2022-10-12T11:57:35.908Z,23.20
2022-10-12T11:58:59.206Z,22.91
2022-10-12T11:59:35.927Z,22.62
2022-10-12T12:00:35.903Z,22.60
2022-10-12T12:01:35.923Z,22.47
2022-10-12T12:02:35.920Z,22.36
2022-10-12T12:03:36.037Z,22.28
2022-10-12T12:04:42.170Z,22.30
2022-10-12T12:05:35.920Z,22.21
2022-10-12T12:06:35.923Z,22.06
2022-10-12T12:07:35.950Z,21.99
2022-10-12T12:08:35.928Z,21.77
2022-10-12T12:09:35.969Z,21.64
2022-10-12T12:10:35.951Z,21.37
2022-10-12T12:11:35.955Z,21.13
2022-10-12T12:12:35.950Z,20.69
2022-10-12T12:13:35.960Z,20.55
2022-10-12T12:14:35.954Z,20.28
2022-10-12T12:15:35.973Z,20.11
2022-10-12T12:16:35.953Z,19.92
2022-10-12T12:17:35.963Z,19.76
2022-10-12T12:18:35.960Z,19.84
2022-10-12T12:19:35.973Z,19.78
2022-10-12T12:20:35.986Z,19.78
2022-10-12T12:21:35.985Z,19.69
2022-10-12T12:22:35.984Z,19.63
2022-10-12T12:23:35.990Z,19.62
2022-10-12T12:24:38.592Z,19.69
2022-10-12T12:25:36.021Z,19.73
2022-10-12T12:26:35.992Z,19.76
2022-10-12T12:27:35.988Z,19.83
2022-10-12T12:28:36.052Z,19.80
2022-10-12T12:29:35.995Z,19.87
2022-10-12T12:30:35.998Z,19.84
2022-10-12T12:31:36.016Z,19.78
2022-10-12T12:32:35.996Z,19.86
2022-10-12T12:33:36.001Z,19.77
2022-10-12T12:34:36.003Z,19.66
2022-10-12T12:35:36.039Z,19.62
2022-10-12T12:36:36.028Z,19.40
2022-10-12T12:37:36.038Z,19.43
2022-10-12T12:38:36.013Z,19.41
2022-10-12T12:39:36.044Z,19.48
2022-10-12T12:40:36.026Z,19.46
2022-10-12T12:41:36.034Z,19.39
2022-10-12T12:42:36.033Z,19.51
2022-10-12T12:43:36.044Z,19.48
2022-10-12T12:44:36.027Z,19.59
2022-10-12T12:45:36.050Z,19.66
2022-10-12T12:46:36.056Z,19.62
2022-10-12T12:47:51.310Z,19.68
2022-10-12T12:48:36.049Z,19.62
2022-10-12T12:49:36.051Z,19.59
2022-10-12T12:50:36.054Z,19.55
2022-10-12T12:51:36.054Z,19.59
2022-10-12T12:52:36.066Z,19.58
2022-10-12T12:53:36.060Z,19.47
2022-10-12T12:54:36.048Z,19.48
2022-10-12T12:55:36.075Z,19.55
2022-10-12T12:56:36.068Z,19.48
2022-10-12T12:57:36.069Z,19.65
2022-10-12T12:58:36.071Z,19.73
2022-10-12T12:59:36.075Z,19.74
2022-10-12T13:00:38.911Z,19.66
2022-10-12T13:01:36.111Z,19.66
2022-10-12T13:02:36.068Z,19.62
2022-10-12T13:03:36.084Z,19.55
2022-10-12T13:04:36.086Z,19.50
2022-10-12T13:05:36.084Z,19.33
2022-10-12T13:06:36.077Z,19.32
2022-10-12T13:07:36.090Z,19.39
2022-10-12T13:08:36.116Z,19.28